sensor_id;sensor_type;location;lat;lon;timestamp;temperature;humidity
72814;DHT22;60945;48.516;-2.768;2023-01-31T00:00:25;10.70;57.80
72814;DHT22;60945;48.516;-2.768;2023-01-31T00:02:51;10.40;57.20
72814;DHT22;60945;48.516;-2.768;2023-01-31T00:05:17;10.40;57.40
72814;DHT22;60945;48.516;-2.768;2023-01-31T00:07:44;10.60;59.30
72814;DHT22;60945;48.516;-2.768;2023-01-31T00:10:13;10.60;59.30
72814;DHT22;60945;48.516;-2.768;2023-01-31T00:12:38;10.50;59.50
72814;DHT22;60945;48.516;-2.768;2023-01-31T00:15:04;10.40;60.80
72814;DHT22;60945;48.516;-2.768;2023-01-31T00:17:30;10.30;60.30
72814;DHT22;60945;48.516;-2.768;2023-01-31T00:19:55;10.40;60.20
72814;DHT22;60945;48.516;-2.768;2023-01-31T00:22:21;10.70;59.30
72814;DHT22;60945;48.516;-2.768;2023-01-31T00:24:47;10.70;58.30
72814;DHT22;60945;48.516;-2.768;2023-01-31T00:27:13;10.70;59.20
72814;DHT22;60945;48.516;-2.768;2023-01-31T00:29:38;10.70;59.20
72814;DHT22;60945;48.516;-2.768;2023-01-31T00:32:04;10.50;58.00
72814;DHT22;60945;48.516;-2.768;2023-01-31T00:34:29;10.50;58.70
72814;DHT22;60945;48.516;-2.768;2023-01-31T00:36:55;10.70;59.10
72814;DHT22;60945;48.516;-2.768;2023-01-31T00:39:21;10.50;58.30
72814;DHT22;60945;48.516;-2.768;2023-01-31T00:41:46;10.60;57.20
72814;DHT22;60945;48.516;-2.768;2023-01-31T00:44:12;10.50;57.70
72814;DHT22;60945;48.516;-2.768;2023-01-31T00:46:38;10.50;59.70
72814;DHT22;60945;48.516;-2.768;2023-01-31T00:49:04;10.50;59.60
72814;DHT22;60945;48.516;-2.768;2023-01-31T00:51:29;10.60;58.60
72814;DHT22;60945;48.516;-2.768;2023-01-31T00:53:55;10.60;59.80
72814;DHT22;60945;48.516;-2.768;2023-01-31T00:56:23;10.60;59.70
72814;DHT22;60945;48.516;-2.768;2023-01-31T00:58:49;10.50;57.90
72814;DHT22;60945;48.516;-2.768;2023-01-31T01:01:24;10.50;58.30
72814;DHT22;60945;48.516;-2.768;2023-01-31T01:03:50;10.50;57.60
72814;DHT22;60945;48.516;-2.768;2023-01-31T01:06:17;10.30;58.50
72814;DHT22;60945;48.516;-2.768;2023-01-31T01:08:43;10.30;58.00
72814;DHT22;60945;48.516;-2.768;2023-01-31T01:11:12;10.40;58.00
72814;DHT22;60945;48.516;-2.768;2023-01-31T01:13:39;10.40;60.10
72814;DHT22;60945;48.516;-2.768;2023-01-31T01:16:09;10.50;58.60
72814;DHT22;60945;48.516;-2.768;2023-01-31T01:18:38;10.10;59.50
72814;DHT22;60945;48.516;-2.768;2023-01-31T01:21:16;10.20;60.00
72814;DHT22;60945;48.516;-2.768;2023-01-31T01:23:42;10.20;60.70
72814;DHT22;60945;48.516;-2.768;2023-01-31T01:26:16;10.30;58.70
72814;DHT22;60945;48.516;-2.768;2023-01-31T01:28:42;10.30;59.70
72814;DHT22;60945;48.516;-2.768;2023-01-31T01:31:09;10.40;60.40
72814;DHT22;60945;48.516;-2.768;2023-01-31T01:33:36;10.50;59.90
72814;DHT22;60945;48.516;-2.768;2023-01-31T01:36:06;10.30;58.70
72814;DHT22;60945;48.516;-2.768;2023-01-31T01:38:34;10.40;58.30
72814;DHT22;60945;48.516;-2.768;2023-01-31T01:41:00;10.30;58.20
72814;DHT22;60945;48.516;-2.768;2023-01-31T01:46:18;10.40;59.30
72814;DHT22;60945;48.516;-2.768;2023-01-31T01:48:49;10.30;58.50
72814;DHT22;60945;48.516;-2.768;2023-01-31T01:51:16;10.10;60.00
72814;DHT22;60945;48.516;-2.768;2023-01-31T01:53:46;10.20;58.50
72814;DHT22;60945;48.516;-2.768;2023-01-31T01:56:17;10.20;59.50
72814;DHT22;60945;48.516;-2.768;2023-01-31T01:59:01;10.30;60.10
72814;DHT22;60945;48.516;-2.768;2023-01-31T02:01:31;10.40;59.30
72814;DHT22;60945;48.516;-2.768;2023-01-31T02:03:58;10.10;58.70
72814;DHT22;60945;48.516;-2.768;2023-01-31T02:06:24;10.20;59.90
72814;DHT22;60945;48.516;-2.768;2023-01-31T02:08:50;10.20;59.50
72814;DHT22;60945;48.516;-2.768;2023-01-31T02:11:27;10.30;59.20
72814;DHT22;60945;48.516;-2.768;2023-01-31T02:14:02;10.20;59.10
72814;DHT22;60945;48.516;-2.768;2023-01-31T02:16:29;10.00;59.70
72814;DHT22;60945;48.516;-2.768;2023-01-31T02:18:55;9.90;59.70
72814;DHT22;60945;48.516;-2.768;2023-01-31T02:25:22;10.00;59.80
72814;DHT22;60945;48.516;-2.768;2023-01-31T02:32:40;9.30;61.30
72814;DHT22;60945;48.516;-2.768;2023-01-31T02:38:08;9.80;60.30
72814;DHT22;60945;48.516;-2.768;2023-01-31T02:47:01;9.80;59.30
72814;DHT22;60945;48.516;-2.768;2023-01-31T02:49:38;10.00;59.80
72814;DHT22;60945;48.516;-2.768;2023-01-31T02:52:32;10.10;59.10
72814;DHT22;60945;48.516;-2.768;2023-01-31T02:57:55;10.20;61.10
72814;DHT22;60945;48.516;-2.768;2023-01-31T03:00:21;10.30;60.40
72814;DHT22;60945;48.516;-2.768;2023-01-31T03:02:48;10.30;60.40
72814;DHT22;60945;48.516;-2.768;2023-01-31T03:05:16;10.20;60.50
72814;DHT22;60945;48.516;-2.768;2023-01-31T03:07:45;10.30;59.60
72814;DHT22;60945;48.516;-2.768;2023-01-31T03:10:43;10.20;59.60
72814;DHT22;60945;48.516;-2.768;2023-01-31T03:13:40;10.20;59.10
72814;DHT22;60945;48.516;-2.768;2023-01-31T03:16:23;10.30;58.80
72814;DHT22;60945;48.516;-2.768;2023-01-31T03:19:18;10.30;58.80
72814;DHT22;60945;48.516;-2.768;2023-01-31T03:21:52;10.30;59.30
72814;DHT22;60945;48.516;-2.768;2023-01-31T03:24:20;10.10;59.20
72814;DHT22;60945;48.516;-2.768;2023-01-31T03:26:54;10.30;58.80
72814;DHT22;60945;48.516;-2.768;2023-01-31T03:29:20;10.40;58.70
72814;DHT22;60945;48.516;-2.768;2023-01-31T03:31:53;10.30;58.80
72814;DHT22;60945;48.516;-2.768;2023-01-31T03:34:20;10.30;59.30
72814;DHT22;60945;48.516;-2.768;2023-01-31T03:45:14;10.50;60.30
72814;DHT22;60945;48.516;-2.768;2023-01-31T03:47:46;10.30;59.10
72814;DHT22;60945;48.516;-2.768;2023-01-31T03:50:25;10.30;60.20
72814;DHT22;60945;48.516;-2.768;2023-01-31T03:55:41;10.40;60.10
72814;DHT22;60945;48.516;-2.768;2023-01-31T03:58:12;10.40;60.70
72814;DHT22;60945;48.516;-2.768;2023-01-31T04:00:41;10.50;59.60
72814;DHT22;60945;48.516;-2.768;2023-01-31T04:03:19;10.30;60.30
72814;DHT22;60945;48.516;-2.768;2023-01-31T04:05:45;10.30;59.30
72814;DHT22;60945;48.516;-2.768;2023-01-31T04:08:11;10.30;59.80
72814;DHT22;60945;48.516;-2.768;2023-01-31T04:10:37;10.30;59.40
72814;DHT22;60945;48.516;-2.768;2023-01-31T04:13:02;10.50;59.40
72814;DHT22;60945;48.516;-2.768;2023-01-31T04:15:28;10.40;60.00
72814;DHT22;60945;48.516;-2.768;2023-01-31T04:17:54;10.20;60.40
72814;DHT22;60945;48.516;-2.768;2023-01-31T04:20:20;10.20;60.10
72814;DHT22;60945;48.516;-2.768;2023-01-31T04:22:45;10.30;60.60
72814;DHT22;60945;48.516;-2.768;2023-01-31T04:25:11;10.40;60.90
72814;DHT22;60945;48.516;-2.768;2023-01-31T04:27:36;10.50;60.90
72814;DHT22;60945;48.516;-2.768;2023-01-31T04:30:04;10.40;59.20
72814;DHT22;60945;48.516;-2.768;2023-01-31T04:32:29;10.50;59.90
72814;DHT22;60945;48.516;-2.768;2023-01-31T04:34:55;10.40;60.90
72814;DHT22;60945;48.516;-2.768;2023-01-31T04:37:21;10.40;60.30
72814;DHT22;60945;48.516;-2.768;2023-01-31T04:39:46;10.30;59.40
72814;DHT22;60945;48.516;-2.768;2023-01-31T04:42:12;10.30;60.10
72814;DHT22;60945;48.516;-2.768;2023-01-31T04:44:38;10.50;60.50
72814;DHT22;60945;48.516;-2.768;2023-01-31T04:47:03;10.50;60.40
72814;DHT22;60945;48.516;-2.768;2023-01-31T04:49:29;10.40;60.00
72814;DHT22;60945;48.516;-2.768;2023-01-31T04:51:54;10.20;60.40
72814;DHT22;60945;48.516;-2.768;2023-01-31T04:54:20;10.30;59.20
72814;DHT22;60945;48.516;-2.768;2023-01-31T04:56:46;10.30;60.00
72814;DHT22;60945;48.516;-2.768;2023-01-31T04:59:11;10.40;59.60
72814;DHT22;60945;48.516;-2.768;2023-01-31T05:01:37;10.60;59.50
72814;DHT22;60945;48.516;-2.768;2023-01-31T05:04:03;10.50;59.10
72814;DHT22;60945;48.516;-2.768;2023-01-31T05:06:29;10.40;59.60
72814;DHT22;60945;48.516;-2.768;2023-01-31T05:08:54;10.40;60.30
72814;DHT22;60945;48.516;-2.768;2023-01-31T05:11:20;10.40;60.00
72814;DHT22;60945;48.516;-2.768;2023-01-31T05:13:46;10.30;59.90
72814;DHT22;60945;48.516;-2.768;2023-01-31T05:16:14;10.30;60.40
72814;DHT22;60945;48.516;-2.768;2023-01-31T05:18:40;10.40;60.40
72814;DHT22;60945;48.516;-2.768;2023-01-31T05:21:06;10.50;60.70
72814;DHT22;60945;48.516;-2.768;2023-01-31T05:23:32;10.60;60.80
72814;DHT22;60945;48.516;-2.768;2023-01-31T05:25:58;10.40;59.70
72814;DHT22;60945;48.516;-2.768;2023-01-31T05:28:24;10.10;61.40
72814;DHT22;60945;48.516;-2.768;2023-01-31T05:30:59;10.20;60.30
72814;DHT22;60945;48.516;-2.768;2023-01-31T05:33:25;10.20;60.10
72814;DHT22;60945;48.516;-2.768;2023-01-31T05:35:52;10.40;60.80
72814;DHT22;60945;48.516;-2.768;2023-01-31T05:38:17;10.40;60.00
72814;DHT22;60945;48.516;-2.768;2023-01-31T05:40:44;10.50;60.80
72814;DHT22;60945;48.516;-2.768;2023-01-31T05:43:10;10.40;60.90
72814;DHT22;60945;48.516;-2.768;2023-01-31T05:45:35;10.30;60.30
72814;DHT22;60945;48.516;-2.768;2023-01-31T05:48:01;10.10;60.60
72814;DHT22;60945;48.516;-2.768;2023-01-31T05:50:27;10.30;60.40
72814;DHT22;60945;48.516;-2.768;2023-01-31T05:52:55;10.20;60.30
72814;DHT22;60945;48.516;-2.768;2023-01-31T05:55:21;10.30;61.20
72814;DHT22;60945;48.516;-2.768;2023-01-31T05:57:47;10.40;60.70
72814;DHT22;60945;48.516;-2.768;2023-01-31T06:00:13;10.40;60.70
72814;DHT22;60945;48.516;-2.768;2023-01-31T06:02:40;10.40;60.50
72814;DHT22;60945;48.516;-2.768;2023-01-31T06:05:06;10.30;60.40
72814;DHT22;60945;48.516;-2.768;2023-01-31T06:07:32;10.30;60.30
72814;DHT22;60945;48.516;-2.768;2023-01-31T06:09:58;10.10;60.80
72814;DHT22;60945;48.516;-2.768;2023-01-31T06:12:24;10.10;61.10
72814;DHT22;60945;48.516;-2.768;2023-01-31T06:14:49;10.00;61.00
72814;DHT22;60945;48.516;-2.768;2023-01-31T06:17:15;10.20;61.60
72814;DHT22;60945;48.516;-2.768;2023-01-31T06:19:41;10.40;60.70
72814;DHT22;60945;48.516;-2.768;2023-01-31T06:22:06;10.30;62.00
72814;DHT22;60945;48.516;-2.768;2023-01-31T06:24:32;10.20;61.10
72814;DHT22;60945;48.516;-2.768;2023-01-31T06:26:58;10.20;62.10
72814;DHT22;60945;48.516;-2.768;2023-01-31T06:29:23;10.30;62.00
72814;DHT22;60945;48.516;-2.768;2023-01-31T06:31:49;10.50;61.50
72814;DHT22;60945;48.516;-2.768;2023-01-31T06:34:14;10.50;60.60
72814;DHT22;60945;48.516;-2.768;2023-01-31T06:36:40;10.50;60.90
72814;DHT22;60945;48.516;-2.768;2023-01-31T06:39:06;10.30;61.10
72814;DHT22;60945;48.516;-2.768;2023-01-31T06:41:31;10.30;61.00
72814;DHT22;60945;48.516;-2.768;2023-01-31T06:43:57;10.30;61.60
72814;DHT22;60945;48.516;-2.768;2023-01-31T06:46:23;10.30;61.10
72814;DHT22;60945;48.516;-2.768;2023-01-31T06:48:48;9.90;61.40
72814;DHT22;60945;48.516;-2.768;2023-01-31T06:51:15;10.00;62.60
72814;DHT22;60945;48.516;-2.768;2023-01-31T06:53:41;10.10;61.70
72814;DHT22;60945;48.516;-2.768;2023-01-31T06:56:09;9.60;62.70
72814;DHT22;60945;48.516;-2.768;2023-01-31T06:58:34;9.50;63.30
72814;DHT22;60945;48.516;-2.768;2023-01-31T07:01:09;9.30;63.30
72814;DHT22;60945;48.516;-2.768;2023-01-31T07:03:35;9.30;63.70
72814;DHT22;60945;48.516;-2.768;2023-01-31T07:06:01;9.40;63.60
72814;DHT22;60945;48.516;-2.768;2023-01-31T07:08:27;9.20;63.50
72814;DHT22;60945;48.516;-2.768;2023-01-31T07:10:52;9.20;63.50
72814;DHT22;60945;48.516;-2.768;2023-01-31T07:13:18;9.20;63.80
72814;DHT22;60945;48.516;-2.768;2023-01-31T07:15:44;9.10;64.50
72814;DHT22;60945;48.516;-2.768;2023-01-31T07:18:10;9.10;64.40
72814;DHT22;60945;48.516;-2.768;2023-01-31T07:20:38;9.00;64.40
72814;DHT22;60945;48.516;-2.768;2023-01-31T07:23:04;9.10;64.60
72814;DHT22;60945;48.516;-2.768;2023-01-31T07:25:34;9.10;64.60
72814;DHT22;60945;48.516;-2.768;2023-01-31T07:28:09;9.00;65.30
72814;DHT22;60945;48.516;-2.768;2023-01-31T07:30:35;9.10;65.60
72814;DHT22;60945;48.516;-2.768;2023-01-31T07:33:01;9.10;64.30
72814;DHT22;60945;48.516;-2.768;2023-01-31T07:35:27;9.00;64.80
72814;DHT22;60945;48.516;-2.768;2023-01-31T07:37:53;9.00;64.50
72814;DHT22;60945;48.516;-2.768;2023-01-31T07:40:19;9.10;64.40
72814;DHT22;60945;48.516;-2.768;2023-01-31T07:42:45;8.90;64.80
72814;DHT22;60945;48.516;-2.768;2023-01-31T07:45:13;9.10;64.30
72814;DHT22;60945;48.516;-2.768;2023-01-31T07:47:39;9.00;64.40
72814;DHT22;60945;48.516;-2.768;2023-01-31T07:50:04;9.10;64.50
72814;DHT22;60945;48.516;-2.768;2023-01-31T07:52:31;9.20;63.90
72814;DHT22;60945;48.516;-2.768;2023-01-31T07:54:57;9.20;64.00
72814;DHT22;60945;48.516;-2.768;2023-01-31T07:57:22;9.40;63.70
72814;DHT22;60945;48.516;-2.768;2023-01-31T07:59:48;9.40;63.30
72814;DHT22;60945;48.516;-2.768;2023-01-31T08:02:16;9.40;63.40
72814;DHT22;60945;48.516;-2.768;2023-01-31T08:05:01;9.50;63.60
72814;DHT22;60945;48.516;-2.768;2023-01-31T08:07:30;9.50;63.00
72814;DHT22;60945;48.516;-2.768;2023-01-31T08:10:08;9.40;63.50
72814;DHT22;60945;48.516;-2.768;2023-01-31T08:12:54;9.30;64.30
72814;DHT22;60945;48.516;-2.768;2023-01-31T08:15:19;9.40;63.50
72814;DHT22;60945;48.516;-2.768;2023-01-31T08:18:39;9.40;63.10
72814;DHT22;60945;48.516;-2.768;2023-01-31T08:20:58;9.20;63.90
72814;DHT22;60945;48.516;-2.768;2023-01-31T08:23:26;9.10;64.30
72814;DHT22;60945;48.516;-2.768;2023-01-31T08:25:52;9.00;64.80
72814;DHT22;60945;48.516;-2.768;2023-01-31T08:28:23;9.20;64.30
72814;DHT22;60945;48.516;-2.768;2023-01-31T08:30:51;9.20;63.90
72814;DHT22;60945;48.516;-2.768;2023-01-31T08:33:17;9.50;63.50
72814;DHT22;60945;48.516;-2.768;2023-01-31T08:35:43;9.40;63.80
72814;DHT22;60945;48.516;-2.768;2023-01-31T08:38:08;9.40;63.20
72814;DHT22;60945;48.516;-2.768;2023-01-31T08:40:34;9.40;63.60
72814;DHT22;60945;48.516;-2.768;2023-01-31T08:43:00;9.50;64.10
72814;DHT22;60945;48.516;-2.768;2023-01-31T08:45:29;9.60;62.90
72814;DHT22;60945;48.516;-2.768;2023-01-31T08:47:59;9.40;63.80
72814;DHT22;60945;48.516;-2.768;2023-01-31T08:50:29;9.80;63.40
72814;DHT22;60945;48.516;-2.768;2023-01-31T08:52:56;9.70;63.60
72814;DHT22;60945;48.516;-2.768;2023-01-31T08:55:23;9.60;64.00
72814;DHT22;60945;48.516;-2.768;2023-01-31T08:57:49;9.50;64.10
72814;DHT22;60945;48.516;-2.768;2023-01-31T09:00:16;9.40;64.40
72814;DHT22;60945;48.516;-2.768;2023-01-31T09:02:42;9.60;64.10
72814;DHT22;60945;48.516;-2.768;2023-01-31T09:05:11;10.40;61.80
72814;DHT22;60945;48.516;-2.768;2023-01-31T09:07:37;11.10;59.40
72814;DHT22;60945;48.516;-2.768;2023-01-31T09:10:03;12.10;56.50
72814;DHT22;60945;48.516;-2.768;2023-01-31T09:12:29;12.50;55.10
72814;DHT22;60945;48.516;-2.768;2023-01-31T09:14:55;13.30;52.60
72814;DHT22;60945;48.516;-2.768;2023-01-31T09:17:21;14.30;50.20
72814;DHT22;60945;48.516;-2.768;2023-01-31T09:19:47;15.00;48.60
72814;DHT22;60945;48.516;-2.768;2023-01-31T09:22:13;15.40;47.10
72814;DHT22;60945;48.516;-2.768;2023-01-31T09:24:39;15.70;47.10
72814;DHT22;60945;48.516;-2.768;2023-01-31T09:27:05;16.10;45.80
72814;DHT22;60945;48.516;-2.768;2023-01-31T09:29:30;16.20;45.40
72814;DHT22;60945;48.516;-2.768;2023-01-31T09:31:56;16.70;44.60
72814;DHT22;60945;48.516;-2.768;2023-01-31T09:34:22;16.20;45.30
72814;DHT22;60945;48.516;-2.768;2023-01-31T09:36:47;16.70;44.60
72814;DHT22;60945;48.516;-2.768;2023-01-31T09:39:13;16.70;44.60
72814;DHT22;60945;48.516;-2.768;2023-01-31T09:41:55;16.80;44.20
72814;DHT22;60945;48.516;-2.768;2023-01-31T09:45:00;16.90;43.90
72814;DHT22;60945;48.516;-2.768;2023-01-31T09:47:20;14.40;48.70
72814;DHT22;60945;48.516;-2.768;2023-01-31T09:49:56;12.90;53.80
72814;DHT22;60945;48.516;-2.768;2023-01-31T09:52:23;12.30;55.70
72814;DHT22;60945;48.516;-2.768;2023-01-31T09:54:55;12.20;56.90
72814;DHT22;60945;48.516;-2.768;2023-01-31T09:57:54;12.00;57.80
72814;DHT22;60945;48.516;-2.768;2023-01-31T10:00:26;11.90;58.30
72814;DHT22;60945;48.516;-2.768;2023-01-31T10:03:16;12.30;58.00
72814;DHT22;60945;48.516;-2.768;2023-01-31T10:05:57;11.80;58.80
72814;DHT22;60945;48.516;-2.768;2023-01-31T10:11:00;11.70;60.00
72814;DHT22;60945;48.516;-2.768;2023-01-31T10:13:36;12.30;58.90
72814;DHT22;60945;48.516;-2.768;2023-01-31T10:16:30;12.60;58.00
72814;DHT22;60945;48.516;-2.768;2023-01-31T10:19:16;13.10;57.10
72814;DHT22;60945;48.516;-2.768;2023-01-31T10:21:49;13.40;56.40
72814;DHT22;60945;48.516;-2.768;2023-01-31T10:27:11;14.30;53.80
72814;DHT22;60945;48.516;-2.768;2023-01-31T10:29:44;14.50;53.40
72814;DHT22;60945;48.516;-2.768;2023-01-31T10:32:20;14.40;53.60
72814;DHT22;60945;48.516;-2.768;2023-01-31T10:34:59;14.60;53.40
72814;DHT22;60945;48.516;-2.768;2023-01-31T10:37:40;14.60;53.80
72814;DHT22;60945;48.516;-2.768;2023-01-31T10:40:34;14.30;53.60
72814;DHT22;60945;48.516;-2.768;2023-01-31T10:46:01;14.10;54.60
72814;DHT22;60945;48.516;-2.768;2023-01-31T10:48:28;13.80;56.30
72814;DHT22;60945;48.516;-2.768;2023-01-31T10:51:03;13.90;56.20
72814;DHT22;60945;48.516;-2.768;2023-01-31T10:56:35;14.30;54.80
72814;DHT22;60945;48.516;-2.768;2023-01-31T10:59:06;14.80;53.90
72814;DHT22;60945;48.516;-2.768;2023-01-31T11:01:35;14.30;54.70
72814;DHT22;60945;48.516;-2.768;2023-01-31T11:04:19;14.30;55.20
72814;DHT22;60945;48.516;-2.768;2023-01-31T11:06:46;15.20;53.20
72814;DHT22;60945;48.516;-2.768;2023-01-31T11:09:12;15.90;51.70
72814;DHT22;60945;48.516;-2.768;2023-01-31T11:11:56;15.60;51.90
72814;DHT22;60945;48.516;-2.768;2023-01-31T11:14:21;15.60;51.90
72814;DHT22;60945;48.516;-2.768;2023-01-31T11:16:48;15.60;52.00
72814;DHT22;60945;48.516;-2.768;2023-01-31T11:21:49;14.80;53.90
72814;DHT22;60945;48.516;-2.768;2023-01-31T11:24:19;14.30;55.60
72814;DHT22;60945;48.516;-2.768;2023-01-31T11:27:10;14.50;55.10
72814;DHT22;60945;48.516;-2.768;2023-01-31T11:29:46;14.60;54.90
72814;DHT22;60945;48.516;-2.768;2023-01-31T11:32:25;14.90;54.40
72814;DHT22;60945;48.516;-2.768;2023-01-31T11:34:58;15.30;53.40
72814;DHT22;60945;48.516;-2.768;2023-01-31T11:37:25;14.90;54.30
72814;DHT22;60945;48.516;-2.768;2023-01-31T11:39:59;14.60;55.90
72814;DHT22;60945;48.516;-2.768;2023-01-31T11:42:26;15.00;55.20
72814;DHT22;60945;48.516;-2.768;2023-01-31T11:45:15;15.40;54.00
72814;DHT22;60945;48.516;-2.768;2023-01-31T11:47:51;15.20;54.20
72814;DHT22;60945;48.516;-2.768;2023-01-31T11:50:44;15.00;54.70
72814;DHT22;60945;48.516;-2.768;2023-01-31T11:53:18;14.90;54.50
72814;DHT22;60945;48.516;-2.768;2023-01-31T11:55:45;15.00;55.00
72814;DHT22;60945;48.516;-2.768;2023-01-31T12:00:52;15.50;54.60
72814;DHT22;60945;48.516;-2.768;2023-01-31T12:03:18;15.40;54.50
72814;DHT22;60945;48.516;-2.768;2023-01-31T12:05:49;15.60;54.40
72814;DHT22;60945;48.516;-2.768;2023-01-31T12:08:37;15.50;54.10
72814;DHT22;60945;48.516;-2.768;2023-01-31T12:11:05;15.90;53.90
72814;DHT22;60945;48.516;-2.768;2023-01-31T12:13:31;15.70;53.70
72814;DHT22;60945;48.516;-2.768;2023-01-31T12:16:10;16.30;53.20
72814;DHT22;60945;48.516;-2.768;2023-01-31T12:19:07;16.60;51.50
72814;DHT22;60945;48.516;-2.768;2023-01-31T12:30:46;16.20;52.60
72814;DHT22;60945;48.516;-2.768;2023-01-31T12:33:25;15.70;53.90
72814;DHT22;60945;48.516;-2.768;2023-01-31T12:36:10;15.60;54.00
72814;DHT22;60945;48.516;-2.768;2023-01-31T12:41:40;14.70;56.40
72814;DHT22;60945;48.516;-2.768;2023-01-31T12:53:06;15.00;55.80
72814;DHT22;60945;48.516;-2.768;2023-01-31T13:01:30;15.70;55.40
72814;DHT22;60945;48.516;-2.768;2023-01-31T13:04:11;15.70;55.30
72814;DHT22;60945;48.516;-2.768;2023-01-31T13:06:44;16.10;54.30
72814;DHT22;60945;48.516;-2.768;2023-01-31T13:09:19;16.30;54.20
72814;DHT22;60945;48.516;-2.768;2023-01-31T13:12:08;16.50;53.50
72814;DHT22;60945;48.516;-2.768;2023-01-31T13:14:48;16.50;52.90
72814;DHT22;60945;48.516;-2.768;2023-01-31T13:17:18;16.40;53.90
72814;DHT22;60945;48.516;-2.768;2023-01-31T13:20:36;16.10;54.20
72814;DHT22;60945;48.516;-2.768;2023-01-31T13:22:48;15.90;55.00
72814;DHT22;60945;48.516;-2.768;2023-01-31T13:25:33;15.50;56.50
72814;DHT22;60945;48.516;-2.768;2023-01-31T13:28:22;15.50;56.60
72814;DHT22;60945;48.516;-2.768;2023-01-31T13:30:59;15.30;57.80
72814;DHT22;60945;48.516;-2.768;2023-01-31T13:33:46;15.20;57.90
72814;DHT22;60945;48.516;-2.768;2023-01-31T13:38:52;15.20;57.70
72814;DHT22;60945;48.516;-2.768;2023-01-31T13:41:29;15.00;58.10
72814;DHT22;60945;48.516;-2.768;2023-01-31T13:43:56;15.20;57.40
72814;DHT22;60945;48.516;-2.768;2023-01-31T13:46:41;15.10;58.10
72814;DHT22;60945;48.516;-2.768;2023-01-31T13:49:28;15.20;57.90
72814;DHT22;60945;48.516;-2.768;2023-01-31T13:54:36;15.30;57.30
72814;DHT22;60945;48.516;-2.768;2023-01-31T13:57:04;15.10;58.20
72814;DHT22;60945;48.516;-2.768;2023-01-31T13:59:35;15.00;58.40
72814;DHT22;60945;48.516;-2.768;2023-01-31T14:02:04;15.00;58.70
72814;DHT22;60945;48.516;-2.768;2023-01-31T14:04:36;15.20;57.90
72814;DHT22;60945;48.516;-2.768;2023-01-31T14:09:33;15.00;59.10
72814;DHT22;60945;48.516;-2.768;2023-01-31T14:12:05;15.30;58.20
72814;DHT22;60945;48.516;-2.768;2023-01-31T14:14:48;15.40;57.80
72814;DHT22;60945;48.516;-2.768;2023-01-31T14:20:06;15.30;58.80
72814;DHT22;60945;48.516;-2.768;2023-01-31T14:22:36;15.00;59.80
72814;DHT22;60945;48.516;-2.768;2023-01-31T14:27:45;14.50;62.80
72814;DHT22;60945;48.516;-2.768;2023-01-31T14:30:35;14.50;62.90
72814;DHT22;60945;48.516;-2.768;2023-01-31T14:38:29;14.30;63.50
72814;DHT22;60945;48.516;-2.768;2023-01-31T14:41:17;14.60;62.90
72814;DHT22;60945;48.516;-2.768;2023-01-31T14:44:20;15.00;61.30
72814;DHT22;60945;48.516;-2.768;2023-01-31T14:55:28;15.40;58.80
72814;DHT22;60945;48.516;-2.768;2023-01-31T14:57:58;15.50;58.50
72814;DHT22;60945;48.516;-2.768;2023-01-31T15:00:28;15.70;58.40
72814;DHT22;60945;48.516;-2.768;2023-01-31T15:13:50;15.40;59.80
72814;DHT22;60945;48.516;-2.768;2023-01-31T15:16:33;15.20;59.50
72814;DHT22;60945;48.516;-2.768;2023-01-31T15:19:19;15.20;59.50
72814;DHT22;60945;48.516;-2.768;2023-01-31T15:22:06;15.20;59.50
72814;DHT22;60945;48.516;-2.768;2023-01-31T15:24:38;15.30;59.50
72814;DHT22;60945;48.516;-2.768;2023-01-31T15:27:19;14.70;60.60
72814;DHT22;60945;48.516;-2.768;2023-01-31T15:30:03;14.90;60.70
72814;DHT22;60945;48.516;-2.768;2023-01-31T15:35:13;15.60;58.80
72814;DHT22;60945;48.516;-2.768;2023-01-31T15:37:41;15.40;58.90
72814;DHT22;60945;48.516;-2.768;2023-01-31T15:40:23;15.30;59.20
72814;DHT22;60945;48.516;-2.768;2023-01-31T15:42:50;15.00;59.80
72814;DHT22;60945;48.516;-2.768;2023-01-31T15:48:14;14.70;60.50
72814;DHT22;60945;48.516;-2.768;2023-01-31T15:53:19;14.30;62.00
72814;DHT22;60945;48.516;-2.768;2023-01-31T15:55:47;14.30;62.10
72814;DHT22;60945;48.516;-2.768;2023-01-31T15:58:20;14.10;63.30
72814;DHT22;60945;48.516;-2.768;2023-01-31T16:00:52;14.10;63.10
72814;DHT22;60945;48.516;-2.768;2023-01-31T16:03:26;14.10;62.80
72814;DHT22;60945;48.516;-2.768;2023-01-31T16:05:57;14.10;63.10
72814;DHT22;60945;48.516;-2.768;2023-01-31T16:08:32;14.10;63.10
72814;DHT22;60945;48.516;-2.768;2023-01-31T16:11:06;14.00;63.50
72814;DHT22;60945;48.516;-2.768;2023-01-31T16:13:38;13.90;63.40
72814;DHT22;60945;48.516;-2.768;2023-01-31T16:16:05;13.90;63.20
72814;DHT22;60945;48.516;-2.768;2023-01-31T16:18:35;13.80;62.80
72814;DHT22;60945;48.516;-2.768;2023-01-31T16:24:01;14.00;62.90
72814;DHT22;60945;48.516;-2.768;2023-01-31T16:26:33;14.20;62.80
72814;DHT22;60945;48.516;-2.768;2023-01-31T16:29:11;14.10;63.10
72814;DHT22;60945;48.516;-2.768;2023-01-31T16:31:53;14.00;62.30
72814;DHT22;60945;48.516;-2.768;2023-01-31T16:34:32;14.20;63.20
72814;DHT22;60945;48.516;-2.768;2023-01-31T16:37:02;14.10;62.10
72814;DHT22;60945;48.516;-2.768;2023-01-31T16:39:35;14.00;61.90
72814;DHT22;60945;48.516;-2.768;2023-01-31T16:42:07;14.00;63.20
72814;DHT22;60945;48.516;-2.768;2023-01-31T16:44:39;14.00;62.70
72814;DHT22;60945;48.516;-2.768;2023-01-31T16:47:06;14.20;62.10
72814;DHT22;60945;48.516;-2.768;2023-01-31T16:49:36;14.20;63.40
72814;DHT22;60945;48.516;-2.768;2023-01-31T16:52:17;14.00;62.80
72814;DHT22;60945;48.516;-2.768;2023-01-31T16:54:51;13.90;64.10
72814;DHT22;60945;48.516;-2.768;2023-01-31T16:59:59;13.40;66.00
72814;DHT22;60945;48.516;-2.768;2023-01-31T17:02:30;13.40;66.40
72814;DHT22;60945;48.516;-2.768;2023-01-31T17:05:08;13.40;66.20
72814;DHT22;60945;48.516;-2.768;2023-01-31T17:07:42;13.20;66.80
72814;DHT22;60945;48.516;-2.768;2023-01-31T17:10:23;13.30;66.80
72814;DHT22;60945;48.516;-2.768;2023-01-31T17:13:05;13.30;66.60
72814;DHT22;60945;48.516;-2.768;2023-01-31T17:15:33;13.00;67.60
72814;DHT22;60945;48.516;-2.768;2023-01-31T17:17:59;13.00;67.90
72814;DHT22;60945;48.516;-2.768;2023-01-31T17:20:25;13.00;68.60
72814;DHT22;60945;48.516;-2.768;2023-01-31T17:22:50;12.90;67.90
72814;DHT22;60945;48.516;-2.768;2023-01-31T17:25:18;12.80;68.20
72814;DHT22;60945;48.516;-2.768;2023-01-31T17:27:45;12.80;68.50
72814;DHT22;60945;48.516;-2.768;2023-01-31T17:30:17;12.80;68.50
72814;DHT22;60945;48.516;-2.768;2023-01-31T17:32:43;12.70;68.80
72814;DHT22;60945;48.516;-2.768;2023-01-31T17:35:35;12.80;68.50
72814;DHT22;60945;48.516;-2.768;2023-01-31T17:38:02;13.00;68.20
72814;DHT22;60945;48.516;-2.768;2023-01-31T17:40:28;13.00;67.70
72814;DHT22;60945;48.516;-2.768;2023-01-31T17:42:58;13.00;68.20
72814;DHT22;60945;48.516;-2.768;2023-01-31T17:45:24;12.90;68.20
72814;DHT22;60945;48.516;-2.768;2023-01-31T17:47:50;13.00;68.10
72814;DHT22;60945;48.516;-2.768;2023-01-31T17:50:18;13.30;67.60